sensor_id;sensor_type;location;lat;lon;timestamp;pressure;altitude;pressure_sealevel;temperature;humidity
9521;BME280;4798;41.574;23.734;2023-04-26T00:00:26;94408.09;;;12.77;100.00
9521;BME280;4798;41.574;23.734;2023-04-26T00:02:55;94335.50;;;12.45;100.00
9521;BME280;4798;41.574;23.734;2023-04-26T00:05:24;94401.22;;;12.09;100.00
9521;BME280;4798;41.574;23.734;2023-04-26T00:07:53;94410.97;;;11.51;100.00
9521;BME280;4798;41.574;23.734;2023-04-26T00:10:21;94416.16;;;11.56;100.00
9521;BME280;4798;41.574;23.734;2023-04-26T00:12:49;94397.66;;;11.78;100.00
9521;BME280;4798;41.574;23.734;2023-04-26T00:15:18;94391.19;;;11.57;100.00
9521;BME280;4798;41.574;23.734;2023-04-26T00:17:47;94382.78;;;11.90;100.00
9521;BME280;4798;41.574;23.734;2023-04-26T00:20:16;94383.22;;;11.84;100.00
9521;BME280;4798;41.574;23.734;2023-04-26T00:22:45;94381.03;;;11.86;100.00
9521;BME280;4798;41.574;23.734;2023-04-26T00:25:13;94384.78;;;12.07;100.00
9521;BME280;4798;41.574;23.734;2023-04-26T00:27:41;94381.91;;;12.17;100.00
9521;BME280;4798;41.574;23.734;2023-04-26T00:30:10;94387.31;;;11.90;100.00
9521;BME280;4798;41.574;23.734;2023-04-26T00:32:39;94387.22;;;12.17;100.00
9521;BME280;4798;41.574;23.734;2023-04-26T00:35:09;94391.41;;;12.32;100.00
9521;BME280;4798;41.574;23.734;2023-04-26T00:37:37;94400.13;;;12.32;100.00
9521;BME280;4798;41.574;23.734;2023-04-26T00:40:07;94397.13;;;12.47;100.00
9521;BME280;4798;41.574;23.734;2023-04-26T00:42:37;94399.78;;;12.47;100.00
9521;BME280;4798;41.574;23.734;2023-04-26T00:45:06;94404.19;;;12.52;100.00
9521;BME280;4798;41.574;23.734;2023-04-26T00:47:35;94389.34;;;12.29;100.00
9521;BME280;4798;41.574;23.734;2023-04-26T00:50:06;94405.28;;;12.06;100.00
9521;BME280;4798;41.574;23.734;2023-04-26T00:52:37;94403.09;;;11.73;100.00
9521;BME280;4798;41.574;23.734;2023-04-26T00:55:07;94396.50;;;12.06;100.00
9521;BME280;4798;41.574;23.734;2023-04-26T00:57:36;94393.38;;;12.04;100.00
9521;BME280;4798;41.574;23.734;2023-04-26T01:00:05;94399.50;;;11.91;100.00
9521;BME280;4798;41.574;23.734;2023-04-26T01:02:34;94406.09;;;11.93;100.00
9521;BME280;4798;41.574;23.734;2023-04-26T01:05:04;94397.56;;;12.19;100.00
9521;BME280;4798;41.574;23.734;2023-04-26T01:07:33;94408.19;;;12.41;100.00
9521;BME280;4798;41.574;23.734;2023-04-26T01:10:04;94376.59;;;12.17;100.00
9521;BME280;4798;41.574;23.734;2023-04-26T01:12:32;94414.69;;;11.63;100.00
9521;BME280;4798;41.574;23.734;2023-04-26T01:15:02;94414.94;;;11.62;100.00
9521;BME280;4798;41.574;23.734;2023-04-26T01:17:31;94414.78;;;11.72;100.00
9521;BME280;4798;41.574;23.734;2023-04-26T01:19:59;94406.38;;;11.92;100.00
9521;BME280;4798;41.574;23.734;2023-04-26T01:22:33;94396.88;;;12.13;100.00
9521;BME280;4798;41.574;23.734;2023-04-26T01:25:03;94400.59;;;12.12;100.00
9521;BME280;4798;41.574;23.734;2023-04-26T01:27:34;94404.97;;;12.08;100.00
9521;BME280;4798;41.574;23.734;2023-04-26T01:30:03;94396.09;;;12.35;100.00
9521;BME280;4798;41.574;23.734;2023-04-26T01:32:32;94407.16;;;12.28;100.00
9521;BME280;4798;41.574;23.734;2023-04-26T01:35:00;94408.97;;;12.41;100.00
9521;BME280;4798;41.574;23.734;2023-04-26T01:37:29;94409.97;;;12.09;100.00
9521;BME280;4798;41.574;23.734;2023-04-26T01:39:58;94393.75;;;11.34;100.00
9521;BME280;4798;41.574;23.734;2023-04-26T01:42:27;94415.47;;;11.09;100.00
9521;BME280;4798;41.574;23.734;2023-04-26T01:44:55;94406.16;;;10.66;100.00
9521;BME280;4798;41.574;23.734;2023-04-26T01:47:23;94395.00;;;10.69;100.00
9521;BME280;4798;41.574;23.734;2023-04-26T01:49:52;94392.75;;;10.76;100.00
9521;BME280;4798;41.574;23.734;2023-04-26T01:52:21;94397.47;;;10.79;100.00
9521;BME280;4798;41.574;23.734;2023-04-26T01:54:49;94386.50;;;11.26;100.00
9521;BME280;4798;41.574;23.734;2023-04-26T01:57:19;94390.41;;;11.02;100.00
9521;BME280;4798;41.574;23.734;2023-04-26T01:59:47;94391.72;;;11.18;100.00
9521;BME280;4798;41.574;23.734;2023-04-26T02:02:16;94397.50;;;11.20;100.00
9521;BME280;4798;41.574;23.734;2023-04-26T02:04:44;94394.84;;;11.06;100.00
9521;BME280;4798;41.574;23.734;2023-04-26T02:07:13;94389.13;;;10.85;100.00
9521;BME280;4798;41.574;23.734;2023-04-26T02:09:41;94389.41;;;10.70;100.00
9521;BME280;4798;41.574;23.734;2023-04-26T02:12:09;94385.78;;;10.34;100.00
9521;BME280;4798;41.574;23.734;2023-04-26T02:14:39;94307.13;;;10.48;100.00
9521;BME280;4798;41.574;23.734;2023-04-26T02:17:07;94383.03;;;11.26;100.00
9521;BME280;4798;41.574;23.734;2023-04-26T02:19:37;94383.53;;;11.41;100.00
9521;BME280;4798;41.574;23.734;2023-04-26T02:22:05;94376.53;;;11.73;100.00
9521;BME280;4798;41.574;23.734;2023-04-26T02:24:33;94374.50;;;11.92;100.00
9521;BME280;4798;41.574;23.734;2023-04-26T02:27:02;94319.31;;;11.67;100.00
9521;BME280;4798;41.574;23.734;2023-04-26T02:29:31;94384.06;;;12.15;100.00
9521;BME280;4798;41.574;23.734;2023-04-26T02:32:11;94379.69;;;11.75;100.00
9521;BME280;4798;41.574;23.734;2023-04-26T02:34:39;94373.34;;;11.84;100.00
9521;BME280;4798;41.574;23.734;2023-04-26T02:37:07;94372.66;;;11.92;100.00
9521;BME280;4798;41.574;23.734;2023-04-26T02:39:35;94367.16;;;11.89;100.00
9521;BME280;4798;41.574;23.734;2023-04-26T02:42:07;94372.13;;;12.04;100.00
9521;BME280;4798;41.574;23.734;2023-04-26T02:44:36;94375.91;;;11.89;100.00
9521;BME280;4798;41.574;23.734;2023-04-26T02:47:05;94381.09;;;11.45;100.00
9521;BME280;4798;41.574;23.734;2023-04-26T02:49:35;94387.19;;;11.32;100.00
9521;BME280;4798;41.574;23.734;2023-04-26T02:52:03;94380.03;;;11.82;100.00
9521;BME280;4798;41.574;23.734;2023-04-26T02:54:32;94373.13;;;11.45;100.00
9521;BME280;4798;41.574;23.734;2023-04-26T02:57:00;94371.09;;;10.88;100.00
9521;BME280;4798;41.574;23.734;2023-04-26T02:59:29;94367.41;;;11.52;100.00
9521;BME280;4798;41.574;23.734;2023-04-26T03:01:58;94369.72;;;11.67;100.00
9521;BME280;4798;41.574;23.734;2023-04-26T03:04:26;94369.75;;;12.02;100.00
9521;BME280;4798;41.574;23.734;2023-04-26T03:06:57;94375.47;;;11.74;100.00
9521;BME280;4798;41.574;23.734;2023-04-26T03:09:25;94371.34;;;11.13;100.00
9521;BME280;4798;41.574;23.734;2023-04-26T03:11:54;94375.50;;;11.19;100.00
9521;BME280;4798;41.574;23.734;2023-04-26T03:14:22;94370.91;;;11.74;100.00
9521;BME280;4798;41.574;23.734;2023-04-26T03:16:50;94370.00;;;11.92;100.00
9521;BME280;4798;41.574;23.734;2023-04-26T03:19:19;94369.66;;;11.72;100.00
9521;BME280;4798;41.574;23.734;2023-04-26T03:21:47;94370.06;;;12.01;100.00
9521;BME280;4798;41.574;23.734;2023-04-26T03:24:17;94372.25;;;12.21;100.00
9521;BME280;4798;41.574;23.734;2023-04-26T03:26:45;94372.72;;;12.23;100.00
9521;BME280;4798;41.574;23.734;2023-04-26T03:29:15;94353.94;;;12.20;100.00
9521;BME280;4798;41.574;23.734;2023-04-26T03:31:43;94333.81;;;12.19;100.00
9521;BME280;4798;41.574;23.734;2023-04-26T03:34:12;94361.78;;;12.02;100.00
9521;BME280;4798;41.574;23.734;2023-04-26T03:36:40;94320.09;;;11.81;100.00
9521;BME280;4798;41.574;23.734;2023-04-26T03:39:08;94371.34;;;12.26;100.00
9521;BME280;4798;41.574;23.734;2023-04-26T03:41:38;94363.41;;;12.56;100.00
9521;BME280;4798;41.574;23.734;2023-04-26T03:44:07;94277.91;;;11.79;100.00
9521;BME280;4798;41.574;23.734;2023-04-26T03:46:35;94358.53;;;11.83;100.00
9521;BME280;4798;41.574;23.734;2023-04-26T03:49:03;94348.50;;;11.17;100.00
9521;BME280;4798;41.574;23.734;2023-04-26T03:51:32;94360.75;;;10.86;100.00
9521;BME280;4798;41.574;23.734;2023-04-26T03:54:00;94320.47;;;10.43;100.00
9521;BME280;4798;41.574;23.734;2023-04-26T03:56:29;94367.25;;;10.80;100.00
9521;BME280;4798;41.574;23.734;2023-04-26T03:58:59;94366.06;;;10.86;100.00
9521;BME280;4798;41.574;23.734;2023-04-26T04:01:27;94365.34;;;11.48;100.00
9521;BME280;4798;41.574;23.734;2023-04-26T04:03:56;94373.28;;;11.48;100.00
9521;BME280;4798;41.574;23.734;2023-04-26T04:06:25;94370.09;;;11.24;100.00
9521;BME280;4798;41.574;23.734;2023-04-26T04:08:53;94323.84;;;11.03;100.00
9521;BME280;4798;41.574;23.734;2023-04-26T04:11:22;94371.81;;;11.70;100.00
9521;BME280;4798;41.574;23.734;2023-04-26T04:13:50;94371.97;;;11.87;100.00
9521;BME280;4798;41.574;23.734;2023-04-26T04:16:20;94376.47;;;12.00;100.00
9521;BME280;4798;41.574;23.734;2023-04-26T04:18:48;94350.38;;;11.80;100.00
9521;BME280;4798;41.574;23.734;2023-04-26T04:21:17;94376.78;;;11.85;100.00
9521;BME280;4798;41.574;23.734;2023-04-26T04:23:45;94373.78;;;11.78;100.00
9521;BME280;4798;41.574;23.734;2023-04-26T04:26:14;94377.16;;;11.42;100.00
9521;BME280;4798;41.574;23.734;2023-04-26T04:28:43;94386.66;;;11.43;100.00
9521;BME280;4798;41.574;23.734;2023-04-26T04:31:13;94377.53;;;11.63;100.00
9521;BME280;4798;41.574;23.734;2023-04-26T04:33:43;94390.13;;;11.71;100.00
9521;BME280;4798;41.574;23.734;2023-04-26T04:36:12;94334.66;;;11.56;100.00
9521;BME280;4798;41.574;23.734;2023-04-26T04:38:42;94389.63;;;12.05;100.00
9521;BME280;4798;41.574;23.734;2023-04-26T04:41:11;94392.28;;;12.05;100.00
9521;BME280;4798;41.574;23.734;2023-04-26T04:43:40;94370.66;;;11.98;100.00
9521;BME280;4798;41.574;23.734;2023-04-26T04:46:08;94393.91;;;12.59;100.00
9521;BME280;4798;41.574;23.734;2023-04-26T04:48:38;94394.16;;;13.02;100.00
9521;BME280;4798;41.574;23.734;2023-04-26T04:51:08;94398.38;;;12.50;100.00
9521;BME280;4798;41.574;23.734;2023-04-26T04:53:37;94397.22;;;11.98;100.00
9521;BME280;4798;41.574;23.734;2023-04-26T04:56:06;94381.31;;;11.84;100.00
9521;BME280;4798;41.574;23.734;2023-04-26T04:58:34;94398.94;;;12.16;100.00
9521;BME280;4798;41.574;23.734;2023-04-26T05:01:03;94396.13;;;12.65;100.00
9521;BME280;4798;41.574;23.734;2023-04-26T05:03:31;94389.09;;;12.17;100.00
9521;BME280;4798;41.574;23.734;2023-04-26T05:06:00;94388.66;;;12.01;100.00
9521;BME280;4798;41.574;23.734;2023-04-26T05:08:31;94383.03;;;12.02;100.00
9521;BME280;4798;41.574;23.734;2023-04-26T05:10:59;94382.53;;;12.36;100.00
9521;BME280;4798;41.574;23.734;2023-04-26T05:13:27;94386.81;;;12.77;100.00
9521;BME280;4798;41.574;23.734;2023-04-26T05:15:55;94379.75;;;12.41;100.00
9521;BME280;4798;41.574;23.734;2023-04-26T05:18:24;94364.09;;;12.62;100.00
9521;BME280;4798;41.574;23.734;2023-04-26T05:20:53;94383.31;;;12.67;100.00
9521;BME280;4798;41.574;23.734;2023-04-26T05:23:21;94379.94;;;12.75;100.00
9521;BME280;4798;41.574;23.734;2023-04-26T05:25:51;94381.16;;;12.47;100.00
9521;BME280;4798;41.574;23.734;2023-04-26T05:28:19;94388.59;;;12.59;100.00
9521;BME280;4798;41.574;23.734;2023-04-26T05:30:47;94381.78;;;12.66;100.00
9521;BME280;4798;41.574;23.734;2023-04-26T05:33:16;94341.16;;;12.44;100.00
9521;BME280;4798;41.574;23.734;2023-04-26T05:35:44;94386.75;;;12.59;100.00
9521;BME280;4798;41.574;23.734;2023-04-26T05:38:13;94374.53;;;12.36;100.00
9521;BME280;4798;41.574;23.734;2023-04-26T05:40:41;94384.81;;;12.51;100.00
9521;BME280;4798;41.574;23.734;2023-04-26T05:43:11;94378.03;;;12.23;100.00
9521;BME280;4798;41.574;23.734;2023-04-26T05:45:39;94377.09;;;12.19;100.00
9521;BME280;4798;41.574;23.734;2023-04-26T05:48:08;94378.88;;;12.54;100.00
9521;BME280;4798;41.574;23.734;2023-04-26T05:50:36;94361.69;;;12.52;100.00
9521;BME280;4798;41.574;23.734;2023-04-26T05:53:05;94375.16;;;13.17;100.00
9521;BME280;4798;41.574;23.734;2023-04-26T05:55:34;94304.22;;;12.64;99.19
9521;BME280;4798;41.574;23.734;2023-04-26T05:58:02;94382.66;;;13.15;99.75
9521;BME280;4798;41.574;23.734;2023-04-26T06:00:32;94381.06;;;13.14;98.11
9521;BME280;4798;41.574;23.734;2023-04-26T06:03:00;94358.91;;;13.27;96.31
9521;BME280;4798;41.574;23.734;2023-04-26T06:05:29;94373.94;;;13.23;98.43
9521;BME280;4798;41.574;23.734;2023-04-26T06:07:58;94370.94;;;12.94;99.97
9521;BME280;4798;41.574;23.734;2023-04-26T06:10:27;94368.94;;;12.99;100.00
9521;BME280;4798;41.574;23.734;2023-04-26T06:12:55;94370.44;;;13.14;100.00
9521;BME280;4798;41.574;23.734;2023-04-26T06:15:24;94346.06;;;13.29;99.41
9521;BME280;4798;41.574;23.734;2023-04-26T06:17:55;94369.03;;;13.16;100.00
9521;BME280;4798;41.574;23.734;2023-04-26T06:20:23;94376.88;;;13.21;99.01
9521;BME280;4798;41.574;23.734;2023-04-26T06:22:51;94363.94;;;13.37;97.19
9521;BME280;4798;41.574;23.734;2023-04-26T06:25:20;94366.38;;;13.73;96.91
9521;BME280;4798;41.574;23.734;2023-04-26T06:27:48;94366.94;;;13.44;98.54
9521;BME280;4798;41.574;23.734;2023-04-26T06:30:17;94361.78;;;13.48;98.79
9521;BME280;4798;41.574;23.734;2023-04-26T06:32:45;94364.28;;;13.61;100.00
9521;BME280;4798;41.574;23.734;2023-04-26T06:35:15;94348.41;;;13.22;99.03
9521;BME280;4798;41.574;23.734;2023-04-26T06:37:43;94357.97;;;13.23;100.00
9521;BME280;4798;41.574;23.734;2023-04-26T06:40:12;94351.53;;;13.24;100.00
9521;BME280;4798;41.574;23.734;2023-04-26T06:42:41;94336.25;;;13.47;100.00
9521;BME280;4798;41.574;23.734;2023-04-26T06:45:10;94340.09;;;13.15;100.00
9521;BME280;4798;41.574;23.734;2023-04-26T06:47:39;94364.28;;;13.05;100.00
9521;BME280;4798;41.574;23.734;2023-04-26T06:50:09;94348.63;;;13.51;100.00
9521;BME280;4798;41.574;23.734;2023-04-26T06:52:39;94332.34;;;12.65;100.00
9521;BME280;4798;41.574;23.734;2023-04-26T06:55:08;94368.38;;;13.11;100.00
9521;BME280;4798;41.574;23.734;2023-04-26T06:57:36;94371.66;;;13.56;100.00
9521;BME280;4798;41.574;23.734;2023-04-26T07:00:08;94371.53;;;13.69;100.00
9521;BME280;4798;41.574;23.734;2023-04-26T07:02:37;94333.41;;;13.34;98.83
9521;BME280;4798;41.574;23.734;2023-04-26T07:05:06;94365.09;;;13.62;99.54
9521;BME280;4798;41.574;23.734;2023-04-26T07:07:34;94379.38;;;13.83;100.00
9521;BME280;4798;41.574;23.734;2023-04-26T07:10:05;94380.50;;;14.25;96.59
9521;BME280;4798;41.574;23.734;2023-04-26T07:12:34;94354.47;;;14.13;97.94
9521;BME280;4798;41.574;23.734;2023-04-26T07:15:02;94360.41;;;14.27;93.89
9521;BME280;4798;41.574;23.734;2023-04-26T07:17:32;94379.41;;;14.09;95.38
9521;BME280;4798;41.574;23.734;2023-04-26T07:20:00;94374.03;;;14.77;94.31
9521;BME280;4798;41.574;23.734;2023-04-26T07:22:29;94378.34;;;15.07;89.39
9521;BME280;4798;41.574;23.734;2023-04-26T07:24:58;94382.97;;;15.27;90.28
9521;BME280;4798;41.574;23.734;2023-04-26T07:27:29;94334.09;;;14.98;88.15
9521;BME280;4798;41.574;23.734;2023-04-26T07:29:57;94385.09;;;15.43;86.36
9521;BME280;4798;41.574;23.734;2023-04-26T07:32:25;94381.63;;;15.51;85.75
9521;BME280;4798;41.574;23.734;2023-04-26T07:34:54;94388.19;;;14.18;90.76
9521;BME280;4798;41.574;23.734;2023-04-26T07:37:23;94386.44;;;13.87;94.03
9521;BME280;4798;41.574;23.734;2023-04-26T07:39:51;94393.78;;;13.99;94.55
9521;BME280;4798;41.574;23.734;2023-04-26T07:42:19;94394.09;;;13.80;96.80
9521;BME280;4798;41.574;23.734;2023-04-26T07:44:49;94367.63;;;14.10;96.01
9521;BME280;4798;41.574;23.734;2023-04-26T07:47:17;94392.41;;;14.19;92.39
9521;BME280;4798;41.574;23.734;2023-04-26T07:49:46;94393.53;;;14.43;90.58
9521;BME280;4798;41.574;23.734;2023-04-26T07:52:14;94377.16;;;14.79;92.77
9521;BME280;4798;41.574;23.734;2023-04-26T07:54:44;94341.50;;;14.92;91.04
9521;BME280;4798;41.574;23.734;2023-04-26T07:57:13;94336.41;;;14.53;92.16
9521;BME280;4798;41.574;23.734;2023-04-26T07:59:42;94371.63;;;15.31;89.39
9521;BME280;4798;41.574;23.734;2023-04-26T08:02:11;94364.63;;;15.55;86.25
9521;BME280;4798;41.574;23.734;2023-04-26T08:04:46;94357.81;;;15.28;91.47
9521;BME280;4798;41.574;23.734;2023-04-26T08:07:15;94364.28;;;14.81;88.60
9521;BME280;4798;41.574;23.734;2023-04-26T08:09:44;94361.28;;;14.83;89.78
9521;BME280;4798;41.574;23.734;2023-04-26T08:12:12;94334.19;;;14.72;89.52
9521;BME280;4798;41.574;23.734;2023-04-26T08:14:41;94369.50;;;15.15;89.79
9521;BME280;4798;41.574;23.734;2023-04-26T08:17:09;94282.22;;;14.23;89.88
9521;BME280;4798;41.574;23.734;2023-04-26T08:19:39;94369.22;;;15.08;87.90
9521;BME280;4798;41.574;23.734;2023-04-26T08:22:07;94349.81;;;15.28;83.50
9521;BME280;4798;41.574;23.734;2023-04-26T08:24:36;94360.28;;;15.51;81.35
9521;BME280;4798;41.574;23.734;2023-04-26T08:27:04;94362.53;;;15.23;84.04
9521;BME280;4798;41.574;23.734;2023-04-26T08:29:32;94352.53;;;14.82;87.57
9521;BME280;4798;41.574;23.734;2023-04-26T08:32:01;94364.81;;;14.49;90.14
9521;BME280;4798;41.574;23.734;2023-04-26T08:34:29;94335.66;;;14.18;93.28
9521;BME280;4798;41.574;23.734;2023-04-26T08:36:59;94368.25;;;14.67;91.87
9521;BME280;4798;41.574;23.734;2023-04-26T08:39:27;94366.94;;;14.81;92.39
9521;BME280;4798;41.574;23.734;2023-04-26T08:42:03;94368.41;;;14.53;92.07
9521;BME280;4798;41.574;23.734;2023-04-26T08:44:33;94362.78;;;14.37;95.35
9521;BME280;4798;41.574;23.734;2023-04-26T08:47:06;94371.53;;;14.55;95.41
9521;BME280;4798;41.574;23.734;2023-04-26T08:49:39;94321.53;;;14.52;92.96
9521;BME280;4798;41.574;23.734;2023-04-26T08:52:11;94368.66;;;14.86;94.04
9521;BME280;4798;41.574;23.734;2023-04-26T08:54:40;94360.47;;;14.91;95.64
9521;BME280;4798;41.574;23.734;2023-04-26T08:57:09;94297.75;;;13.95;94.25
9521;BME280;4798;41.574;23.734;2023-04-26T08:59:38;94358.41;;;14.16;95.26
9521;BME280;4798;41.574;23.734;2023-04-26T09:02:09;94357.88;;;14.65;90.19
9521;BME280;4798;41.574;23.734;2023-04-26T09:04:43;94366.78;;;14.86;86.88
9521;BME280;4798;41.574;23.734;2023-04-26T09:07:19;94368.13;;;15.01;86.74
9521;BME280;4798;41.574;23.734;2023-04-26T09:09:49;94357.03;;;14.90;87.06
9521;BME280;4798;41.574;23.734;2023-04-26T09:12:18;94312.84;;;14.72;89.25
9521;BME280;4798;41.574;23.734;2023-04-26T09:14:47;94382.53;;;14.45;88.66
9521;BME280;4798;41.574;23.734;2023-04-26T09:17:25;94379.88;;;14.45;91.93
9521;BME280;4798;41.574;23.734;2023-04-26T09:19:54;94375.66;;;14.35;94.78
9521;BME280;4798;41.574;23.734;2023-04-26T09:22:34;94321.69;;;13.61;97.04
9521;BME280;4798;41.574;23.734;2023-04-26T09:25:04;94366.72;;;14.31;97.02
9521;BME280;4798;41.574;23.734;2023-04-26T09:27:35;94357.44;;;13.94;97.58
9521;BME280;4798;41.574;23.734;2023-04-26T09:30:06;94360.44;;;14.10;95.99
9521;BME280;4798;41.574;23.734;2023-04-26T09:32:47;94357.47;;;14.03;93.72
9521;BME280;4798;41.574;23.734;2023-04-26T09:35:24;94355.88;;;14.28;92.89
9521;BME280;4798;41.574;23.734;2023-04-26T09:37:57;94344.53;;;14.65;91.33
9521;BME280;4798;41.574;23.734;2023-04-26T09:40:37;94311.16;;;15.35;89.54
9521;BME280;4798;41.574;23.734;2023-04-26T09:43:08;94320.03;;;15.18;86.04
9521;BME280;4798;41.574;23.734;2023-04-26T09:45:45;94341.63;;;15.34;87.09
9521;BME280;4798;41.574;23.734;2023-04-26T09:48:17;94345.41;;;15.62;84.87
9521;BME280;4798;41.574;23.734;2023-04-26T09:50:47;94337.41;;;15.33;85.22
9521;BME280;4798;41.574;23.734;2023-04-26T09:53:30;94336.63;;;15.61;85.67
9521;BME280;4798;41.574;23.734;2023-04-26T09:56:07;94333.72;;;16.16;83.69
9521;BME280;4798;41.574;23.734;2023-04-26T09:58:37;94328.13;;;16.75;82.44
9521;BME280;4798;41.574;23.734;2023-04-26T10:01:07;94333.00;;;16.61;81.11
9521;BME280;4798;41.574;23.734;2023-04-26T10:03:36;94328.78;;;16.39;81.64
9521;BME280;4798;41.574;23.734;2023-04-26T10:06:06;94331.34;;;16.35;81.99
9521;BME280;4798;41.574;23.734;2023-04-26T10:08:36;94327.53;;;16.04;80.22
9521;BME280;4798;41.574;23.734;2023-04-26T10:11:05;94323.69;;;16.46;80.73
9521;BME280;4798;41.574;23.734;2023-04-26T10:13:35;94316.16;;;17.05;79.21
9521;BME280;4798;41.574;23.734;2023-04-26T10:16:04;94300.97;;;16.52;80.37
9521;BME280;4798;41.574;23.734;2023-04-26T10:18:33;94313.44;;;16.48;76.53
9521;BME280;4798;41.574;23.734;2023-04-26T10:21:06;94296.28;;;16.82;75.12
9521;BME280;4798;41.574;23.734;2023-04-26T10:23:39;94301.19;;;17.16;73.70
9521;BME280;4798;41.574;23.734;2023-04-26T10:26:48;94297.41;;;17.29;69.75
9521;BME280;4798;41.574;23.734;2023-04-26T10:29:18;94216.88;;;16.62;69.80
9521;BME280;4798;41.574;23.734;2023-04-26T10:32:06;94287.47;;;17.30;69.06
9521;BME280;4798;41.574;23.734;2023-04-26T10:34:36;94291.72;;;16.94;72.71
9521;BME280;4798;41.574;23.734;2023-04-26T10:37:09;94291.81;;;16.86;71.76
9521;BME280;4798;41.574;23.734;2023-04-26T10:39:40;94279.28;;;16.54;70.38
9521;BME280;4798;41.574;23.734;2023-04-26T10:42:23;94275.72;;;16.62;72.06
9521;BME280;4798;41.574;23.734;2023-04-26T10:44:53;94279.53;;;16.73;70.72
9521;BME280;4798;41.574;23.734;2023-04-26T10:47:27;94271.75;;;16.47;68.68
9521;BME280;4798;41.574;23.734;2023-04-26T10:50:04;94276.31;;;16.79;70.49
9521;BME280;4798;41.574;23.734;2023-04-26T10:52:33;94264.38;;;17.01;70.85
9521;BME280;4798;41.574;23.734;2023-04-26T10:55:04;94264.59;;;17.32;69.50
9521;BME280;4798;41.574;23.734;2023-04-26T10:57:50;94265.59;;;17.92;68.13
9521;BME280;4798;41.574;23.734;2023-04-26T11:00:25;94267.50;;;16.91;68.65
9521;BME280;4798;41.574;23.734;2023-04-26T11:03:09;94264.94;;;17.06;70.99
9521;BME280;4798;41.574;23.734;2023-04-26T11:05:51;94242.28;;;17.16;67.54
9521;BME280;4798;41.574;23.734;2023-04-26T11:08:24;94223.78;;;17.11;66.97
9521;BME280;4798;41.574;23.734;2023-04-26T11:11:06;94253.34;;;17.78;66.56
9521;BME280;4798;41.574;23.734;2023-04-26T11:13:37;94179.50;;;17.65;65.84
9521;BME280;4798;41.574;23.734;2023-04-26T11:16:06;94172.38;;;17.57;62.83
9521;BME280;4798;41.574;23.734;2023-04-26T11:18:39;94254.22;;;17.95;62.66
9521;BME280;4798;41.574;23.734;2023-04-26T11:21:08;94249.72;;;18.26;60.31
9521;BME280;4798;41.574;23.734;2023-04-26T11:23:36;94242.38;;;18.23;58.94
9521;BME280;4798;41.574;23.734;2023-04-26T11:26:07;94249.38;;;18.28;58.07
9521;BME280;4798;41.574;23.734;2023-04-26T11:28:37;94248.16;;;18.53;56.05
9521;BME280;4798;41.574;23.734;2023-04-26T11:31:06;94249.38;;;18.28;56.74
9521;BME280;4798;41.574;23.734;2023-04-26T11:33:35;94246.16;;;17.95;56.42
9521;BME280;4798;41.574;23.734;2023-04-26T11:36:05;94247.50;;;18.28;56.65
9521;BME280;4798;41.574;23.734;2023-04-26T11:38:33;94246.94;;;18.23;56.34
9521;BME280;4798;41.574;23.734;2023-04-26T11:41:02;94246.75;;;18.16;55.01
9521;BME280;4798;41.574;23.734;2023-04-26T11:43:36;94215.34;;;18.60;54.31
9521;BME280;4798;41.574;23.734;2023-04-26T11:46:06;94235.28;;;18.74;52.51
9521;BME280;4798;41.574;23.734;2023-04-26T11:48:37;94196.72;;;18.82;54.10
9521;BME280;4798;41.574;23.734;2023-04-26T11:51:07;94187.53;;;18.36;54.04
9521;BME280;4798;41.574;23.734;2023-04-26T11:53:38;94235.31;;;19.94;51.81
9521;BME280;4798;41.574;23.734;2023-04-26T11:56:14;94211.03;;;19.52;53.29
9521;BME280;4798;41.574;23.734;2023-04-26T11:58:46;94241.97;;;20.00;52.04
9521;BME280;4798;41.574;23.734;2023-04-26T12:01:21;94234.53;;;19.75;51.55
9521;BME280;4798;41.574;23.734;2023-04-26T12:03:51;94226.19;;;19.80;56.36
9521;BME280;4798;41.574;23.734;2023-04-26T12:06:25;94227.66;;;19.58;51.26
9521;BME280;4798;41.574;23.734;2023-04-26T12:08:55;94219.50;;;18.57;54.00
9521;BME280;4798;41.574;23.734;2023-04-26T12:11:23;94221.06;;;18.89;52.33
9521;BME280;4798;41.574;23.734;2023-04-26T12:13:56;94213.91;;;18.34;53.09
9521;BME280;4798;41.574;23.734;2023-04-26T12:16:25;94184.53;;;18.69;52.12
9521;BME280;4798;41.574;23.734;2023-04-26T12:18:54;94230.50;;;17.97;52.54
9521;BME280;4798;41.574;23.734;2023-04-26T12:21:23;94236.34;;;17.59;53.96
9521;BME280;4798;41.574;23.734;2023-04-26T12:23:56;94251.78;;;16.77;55.94
9521;BME280;4798;41.574;23.734;2023-04-26T12:26:41;94247.03;;;16.17;57.61
9521;BME280;4798;41.574;23.734;2023-04-26T12:29:11;94246.31;;;16.29;58.45
9521;BME280;4798;41.574;23.734;2023-04-26T12:31:39;94246.84;;;16.55;59.45
9521;BME280;4798;41.574;23.734;2023-04-26T12:34:08;94249.44;;;16.31;59.32
9521;BME280;4798;41.574;23.734;2023-04-26T12:36:39;94258.78;;;15.51;60.32
9521;BME280;4798;41.574;23.734;2023-04-26T12:39:09;94257.38;;;15.45;61.76
9521;BME280;4798;41.574;23.734;2023-04-26T12:41:39;94238.44;;;15.38;62.88
9521;BME280;4798;41.574;23.734;2023-04-26T12:44:08;94239.47;;;15.86;63.75
9521;BME280;4798;41.574;23.734;2023-04-26T12:46:53;94269.69;;;16.65;69.39
9521;BME280;4798;41.574;23.734;2023-04-26T12:49:32;94208.25;;;16.44;67.43
9521;BME280;4798;41.574;23.734;2023-04-26T12:52:00;94260.13;;;16.76;67.90
9521;BME280;4798;41.574;23.734;2023-04-26T12:54:29;94274.66;;;16.99;69.66
9521;BME280;4798;41.574;23.734;2023-04-26T12:56:57;94274.53;;;16.83;71.42
9521;BME280;4798;41.574;23.734;2023-04-26T12:59:26;94175.78;;;16.21;68.15
9521;BME280;4798;41.574;23.734;2023-04-26T13:01:56;94259.78;;;16.65;68.52
9521;BME280;4798;41.574;23.734;2023-04-26T13:04:24;94277.28;;;16.75;68.88
9521;BME280;4798;41.574;23.734;2023-04-26T13:06:53;94280.06;;;16.21;70.09
9521;BME280;4798;41.574;23.734;2023-04-26T13:09:21;94291.63;;;15.43;73.96
9521;BME280;4798;41.574;23.734;2023-04-26T13:11:50;94292.56;;;15.47;76.96
9521;BME280;4798;41.574;23.734;2023-04-26T13:14:26;94293.94;;;15.23;78.68
9521;BME280;4798;41.574;23.734;2023-04-26T13:16:56;94221.59;;;14.03;76.67
9521;BME280;4798;41.574;23.734;2023-04-26T13:19:24;94171.56;;;13.28;80.85